createdAt,value
2023-03-04T00:00:29.868Z,4.27
2023-03-04T00:02:57.092Z,4.26
2023-03-04T00:05:24.379Z,4.19
2023-03-04T00:07:51.848Z,4.34
2023-03-04T00:10:19.298Z,4.32
2023-03-04T00:12:46.817Z,4.35
2023-03-04T00:15:14.340Z,4.30
2023-03-04T00:17:41.973Z,4.25
2023-03-04T00:20:09.958Z,4.12
2023-03-04T00:22:37.420Z,4.23
2023-03-04T00:25:06.093Z,4.10
2023-03-04T00:27:33.564Z,4.17
2023-03-04T00:30:01.006Z,4.11
2023-03-04T00:32:28.342Z,4.11
2023-03-04T00:34:55.669Z,4.06
2023-03-04T00:37:23.174Z,4.16
2023-03-04T00:39:50.883Z,4.17
2023-03-04T00:42:18.616Z,4.05
2023-03-04T00:44:46.050Z,4.11
2023-03-04T00:47:13.395Z,4.01
2023-03-04T00:49:40.528Z,4.00
2023-03-04T00:52:07.872Z,3.92
2023-03-04T00:54:35.428Z,3.87
2023-03-04T00:57:03.243Z,3.91
2023-03-04T00:59:30.698Z,3.92
2023-03-04T01:01:57.970Z,3.99
2023-03-04T01:04:25.322Z,3.97
2023-03-04T01:06:53.093Z,4.02
2023-03-04T01:09:20.494Z,4.05
2023-03-04T01:11:47.962Z,3.95
2023-03-04T01:14:15.317Z,3.88
2023-03-04T01:16:42.834Z,3.75
2023-03-04T01:19:10.441Z,3.76
2023-03-04T01:21:38.099Z,3.80
2023-03-04T01:24:05.591Z,3.95
2023-03-04T01:26:33.038Z,3.87
2023-03-04T01:29:00.330Z,3.84
2023-03-04T01:31:27.484Z,3.88
2023-03-04T01:33:54.841Z,3.83
2023-03-04T01:36:22.150Z,3.89
2023-03-04T01:38:50.832Z,3.67
2023-03-04T01:41:22.682Z,3.88
2023-03-04T01:43:50.336Z,3.89
2023-03-04T01:46:17.974Z,3.86
2023-03-04T01:48:45.590Z,3.95
2023-03-04T01:51:17.410Z,3.94
2023-03-04T01:53:47.107Z,4.09
2023-03-04T01:56:35.356Z,3.96
2023-03-04T01:59:15.449Z,3.97
2023-03-04T02:02:01.448Z,4.00
2023-03-04T02:04:33.103Z,4.05
2023-03-04T02:07:03.018Z,3.99
2023-03-04T02:09:32.013Z,4.10
2023-03-04T02:12:00.067Z,4.19
2023-03-04T02:14:27.605Z,4.15
2023-03-04T02:16:55.134Z,4.04
2023-03-04T02:19:51.195Z,3.99
2023-03-04T02:22:18.907Z,3.99
2023-03-04T02:24:53.275Z,4.10
2023-03-04T02:27:22.088Z,4.04
2023-03-04T02:29:50.294Z,4.05
2023-03-04T02:32:18.078Z,4.16
2023-03-04T02:34:51.006Z,4.05
2023-03-04T02:37:20.199Z,4.23
2023-03-04T02:39:49.811Z,4.08
2023-03-04T02:42:18.647Z,4.00
2023-03-04T02:44:49.374Z,3.90
2023-03-04T02:47:19.728Z,4.04
2023-03-04T02:49:48.984Z,3.98
2023-03-04T02:52:22.836Z,3.90
2023-03-04T02:54:50.376Z,3.94
2023-03-04T02:57:18.907Z,4.02
2023-03-04T02:59:51.199Z,3.89
2023-03-04T03:02:22.237Z,4.08
2023-03-04T03:04:49.673Z,4.09
2023-03-04T03:07:19.977Z,4.03
2023-03-04T03:09:47.683Z,3.92
2023-03-04T03:12:14.924Z,3.87
2023-03-04T03:14:42.447Z,3.72
2023-03-04T03:17:12.357Z,3.64
2023-03-04T03:19:39.862Z,3.71
2023-03-04T03:22:08.830Z,3.68
2023-03-04T03:24:36.274Z,3.56
2023-03-04T03:27:03.806Z,3.62
2023-03-04T03:29:31.829Z,3.53
2023-03-04T03:31:59.607Z,3.62
2023-03-04T03:34:27.256Z,3.50
2023-03-04T03:36:54.762Z,3.50
2023-03-04T03:39:22.384Z,3.54
2023-03-04T03:41:50.212Z,3.57
2023-03-04T03:44:17.780Z,3.60
2023-03-04T03:46:45.268Z,3.61
2023-03-04T03:49:12.912Z,3.50
2023-03-04T03:51:40.444Z,3.47
2023-03-04T03:54:07.967Z,3.47
2023-03-04T03:56:35.300Z,3.42
2023-03-04T03:59:02.689Z,3.51
2023-03-04T04:01:30.039Z,3.51
2023-03-04T04:03:57.335Z,3.40
2023-03-04T04:06:24.482Z,3.33
2023-03-04T04:08:52.518Z,3.52
2023-03-04T04:11:19.906Z,3.52
2023-03-04T04:13:47.251Z,3.50
2023-03-04T04:16:14.542Z,3.46
2023-03-04T04:18:42.029Z,3.25
2023-03-04T04:21:10.081Z,3.22
2023-03-04T04:23:37.585Z,3.18
2023-03-04T04:26:05.221Z,3.29
2023-03-04T04:28:32.998Z,3.28
2023-03-04T04:31:00.653Z,3.40
2023-03-04T04:33:28.157Z,3.67
2023-03-04T04:35:55.484Z,3.49
2023-03-04T04:38:22.675Z,3.47
2023-03-04T04:40:49.935Z,3.38
2023-03-04T04:43:17.617Z,3.38
2023-03-04T04:45:45.171Z,3.20
2023-03-04T04:48:12.630Z,3.23
2023-03-04T04:50:39.940Z,3.29
2023-03-04T04:53:07.195Z,3.18
2023-03-04T04:55:34.658Z,3.29
2023-03-04T04:58:02.040Z,3.37
2023-03-04T05:00:29.405Z,3.22
2023-03-04T05:02:56.804Z,3.18
2023-03-04T05:05:24.145Z,3.22
2023-03-04T05:07:51.527Z,3.10
2023-03-04T05:10:19.788Z,3.12
2023-03-04T05:12:47.272Z,3.15
2023-03-04T05:15:14.515Z,3.10
2023-03-04T05:17:41.748Z,3.06
2023-03-04T05:20:09.379Z,3.02
2023-03-04T05:22:36.859Z,2.99
2023-03-04T05:25:04.207Z,2.70
2023-03-04T05:27:31.387Z,2.68
2023-03-04T05:30:04.438Z,2.64
2023-03-04T05:32:32.142Z,2.66
2023-03-04T05:34:59.618Z,2.68
2023-03-04T05:37:27.004Z,2.82
2023-03-04T05:39:54.264Z,2.74
2023-03-04T05:42:21.639Z,2.70
2023-03-04T05:44:48.911Z,2.67
2023-03-04T05:47:16.494Z,2.78
2023-03-04T05:49:44.684Z,2.84
2023-03-04T05:52:12.231Z,2.61
2023-03-04T05:54:39.489Z,2.55
2023-03-04T05:57:06.766Z,2.62
2023-03-04T05:59:33.990Z,2.64
2023-03-04T06:02:01.469Z,2.88
2023-03-04T06:04:28.753Z,2.83
2023-03-04T06:06:55.897Z,2.72
2023-03-04T06:09:23.852Z,2.46
2023-03-04T06:11:51.352Z,2.49
2023-03-04T06:14:18.765Z,2.44
2023-03-04T06:16:46.222Z,2.48
2023-03-04T06:19:13.484Z,2.42
2023-03-04T06:21:43.321Z,2.48
2023-03-04T06:24:13.306Z,2.48
2023-03-04T06:26:40.764Z,2.34
2023-03-04T06:29:08.208Z,2.65
2023-03-04T06:31:35.843Z,2.58
2023-03-04T06:34:03.217Z,2.70
2023-03-04T06:36:30.587Z,2.54
2023-03-04T06:38:57.786Z,2.35
2023-03-04T06:41:25.563Z,2.37
2023-03-04T06:43:56.446Z,2.44
2023-03-04T06:46:24.569Z,2.36
2023-03-04T06:48:54.227Z,2.46
2023-03-04T06:51:23.128Z,2.43
2023-03-04T06:53:51.034Z,2.29
2023-03-04T06:56:18.684Z,2.37
2023-03-04T06:58:47.019Z,2.71
2023-03-04T07:01:16.322Z,3.12
2023-03-04T07:03:44.733Z,3.44
2023-03-04T07:06:14.629Z,3.82
2023-03-04T07:08:43.344Z,4.17
2023-03-04T07:11:11.447Z,4.53
2023-03-04T07:13:39.524Z,4.94
2023-03-04T07:16:14.701Z,5.41
2023-03-04T07:18:42.181Z,5.90
2023-03-04T07:21:09.559Z,6.38
2023-03-04T07:23:37.472Z,6.62
2023-03-04T07:26:05.347Z,6.78
2023-03-04T07:28:33.802Z,6.78
2023-03-04T07:31:20.822Z,7.01
2023-03-04T07:33:48.319Z,7.31
2023-03-04T07:36:19.731Z,7.56
2023-03-04T07:38:49.618Z,7.86
2023-03-04T07:41:18.640Z,8.20
2023-03-04T07:43:46.386Z,8.63
2023-03-04T07:46:14.431Z,8.70
2023-03-04T07:48:42.104Z,9.06
2023-03-04T07:51:14.170Z,9.23
2023-03-04T07:53:44.203Z,9.75
2023-03-04T07:56:14.277Z,10.32
2023-03-04T07:58:42.131Z,10.64
2023-03-04T08:01:19.187Z,10.87
2023-03-04T08:03:47.163Z,10.99
2023-03-04T08:06:16.801Z,10.92
2023-03-04T08:08:44.602Z,10.85
2023-03-04T08:11:17.446Z,10.92
2023-03-04T08:13:45.560Z,11.13
2023-03-04T08:16:15.691Z,10.94
2023-03-04T08:18:44.906Z,11.02
2023-03-04T08:21:14.201Z,11.18
2023-03-04T08:23:42.690Z,11.25
2023-03-04T08:26:14.026Z,11.40
2023-03-04T08:28:41.793Z,11.56
2023-03-04T08:31:09.384Z,11.75
2023-03-04T08:33:36.990Z,11.69
2023-03-04T08:36:05.953Z,11.78
2023-03-04T08:38:33.510Z,12.18
2023-03-04T08:41:01.514Z,12.41
2023-03-04T08:43:28.993Z,12.56
2023-03-04T08:45:56.586Z,12.34
2023-03-04T08:48:24.170Z,12.39
2023-03-04T08:50:52.245Z,12.83
2023-03-04T08:53:20.696Z,12.79
2023-03-04T08:55:49.309Z,12.45
2023-03-04T08:58:16.822Z,12.49
2023-03-04T09:00:48.531Z,12.51
2023-03-04T09:03:17.166Z,12.84
2023-03-04T09:05:46.209Z,13.04
2023-03-04T09:08:14.698Z,13.29
2023-03-04T09:10:42.366Z,13.52
2023-03-04T09:13:11.651Z,13.46
2023-03-04T09:15:47.541Z,13.23
2023-03-04T09:18:16.131Z,12.83
2023-03-04T09:20:44.172Z,12.09
2023-03-04T09:23:12.339Z,11.35
2023-03-04T09:25:40.566Z,11.24
2023-03-04T09:28:08.260Z,10.92
2023-03-04T09:30:36.075Z,11.05
2023-03-04T09:33:03.887Z,11.35
2023-03-04T09:35:31.591Z,11.28
2023-03-04T09:37:59.965Z,11.11
2023-03-04T09:40:37.892Z,10.98
2023-03-04T09:43:11.651Z,11.23
2023-03-04T09:45:45.893Z,10.92
2023-03-04T09:48:17.830Z,10.32
2023-03-04T09:51:06.218Z,9.90
2023-03-04T09:54:07.214Z,9.49
2023-03-04T09:56:38.315Z,9.03
2023-03-04T09:59:18.113Z,8.95
2023-03-04T10:01:56.810Z,8.15
2023-03-04T10:04:50.538Z,8.11
2023-03-04T10:07:24.050Z,8.18
2023-03-04T10:09:59.982Z,8.28
2023-03-04T10:12:31.482Z,8.04
2023-03-04T10:15:03.588Z,7.91
2023-03-04T10:17:39.392Z,7.56
2023-03-04T10:20:13.399Z,7.43
2023-03-04T10:22:49.477Z,7.84
2023-03-04T10:25:46.903Z,7.86
2023-03-04T10:28:23.829Z,8.43
2023-03-04T10:31:17.796Z,8.66
2023-03-04T10:33:45.569Z,8.74
2023-03-04T10:36:51.604Z,8.69
2023-03-04T10:39:24.999Z,8.36
2023-03-04T10:42:16.398Z,8.68
2023-03-04T10:44:57.194Z,8.74
2023-03-04T10:47:27.973Z,8.83
2023-03-04T10:50:04.351Z,9.16
2023-03-04T10:52:32.066Z,9.18
2023-03-04T10:55:15.114Z,9.34
2023-03-04T10:57:45.214Z,9.19
2023-03-04T11:00:19.208Z,9.10
2023-03-04T11:02:48.080Z,8.71
2023-03-04T11:05:15.771Z,8.30
2023-03-04T11:07:55.592Z,8.10
2023-03-04T11:10:36.757Z,8.18
2023-03-04T11:13:25.792Z,8.64
2023-03-04T11:16:05.878Z,9.06
2023-03-04T11:18:53.306Z,9.41
2023-03-04T11:21:24.295Z,9.32
2023-03-04T11:24:03.250Z,9.73
2023-03-04T11:26:30.722Z,9.96
2023-03-04T11:29:19.300Z,9.98
2023-03-04T11:31:52.653Z,10.04
2023-03-04T11:34:30.206Z,10.11
2023-03-04T11:37:12.582Z,9.81
2023-03-04T11:39:54.910Z,9.88
2023-03-04T11:42:34.381Z,9.91
2023-03-04T11:45:02.101Z,10.07
2023-03-04T11:47:32.514Z,10.01
2023-03-04T11:50:23.638Z,9.58
2023-03-04T11:53:26.607Z,9.25
2023-03-04T11:56:00.246Z,9.05
2023-03-04T11:58:36.708Z,9.23
2023-03-04T12:01:04.509Z,9.35
2023-03-04T12:03:41.177Z,9.20
2023-03-04T12:06:27.254Z,9.07
2023-03-04T12:08:57.576Z,9.10
2023-03-04T12:11:40.446Z,8.85
2023-03-04T12:14:28.499Z,8.47
2023-03-04T12:17:24.980Z,8.40
2023-03-04T12:20:04.710Z,8.09
2023-03-04T12:22:45.785Z,7.96
2023-03-04T12:25:24.065Z,8.15
2023-03-04T12:28:03.744Z,8.14
2023-03-04T12:31:06.286Z,8.29
2023-03-04T12:33:49.200Z,8.29
2023-03-04T12:36:19.659Z,8.24
2023-03-04T12:39:06.008Z,8.29
2023-03-04T12:42:00.886Z,8.47
2023-03-04T12:44:33.689Z,8.54
2023-03-04T12:47:19.851Z,8.44
2023-03-04T12:50:14.322Z,8.31
2023-03-04T12:52:57.235Z,8.44
2023-03-04T12:55:44.255Z,8.55
2023-03-04T12:58:26.015Z,8.52
2023-03-04T13:01:12.723Z,8.47
2023-03-04T13:04:07.713Z,8.54
2023-03-04T13:06:46.368Z,8.66
2023-03-04T13:09:29.190Z,8.71
2023-03-04T13:12:04.793Z,8.88
2023-03-04T13:14:34.315Z,8.88
2023-03-04T13:17:29.254Z,8.86
2023-03-04T13:20:11.629Z,8.36
2023-03-04T13:22:39.167Z,8.12
2023-03-04T13:25:26.065Z,8.12
2023-03-04T13:28:05.570Z,8.20
2023-03-04T13:30:32.964Z,7.80
2023-03-04T13:33:03.196Z,7.66
2023-03-04T13:35:50.720Z,7.77
2023-03-04T13:38:37.461Z,7.94
2023-03-04T13:41:17.152Z,8.24
2023-03-04T13:43:52.601Z,8.25
2023-03-04T13:46:20.166Z,8.42
2023-03-04T13:48:50.909Z,8.43
2023-03-04T13:51:33.666Z,8.07
2023-03-04T13:54:01.269Z,8.16
2023-03-04T13:56:37.137Z,8.30
2023-03-04T13:59:07.842Z,8.42
2023-03-04T14:01:41.264Z,8.61
2023-03-04T14:04:21.589Z,8.74
2023-03-04T14:06:51.111Z,8.54
2023-03-04T14:09:25.230Z,8.53
2023-03-04T14:11:57.435Z,8.65
2023-03-04T14:14:44.653Z,8.69
2023-03-04T14:17:19.801Z,8.62
2023-03-04T14:19:48.920Z,8.74
2023-03-04T14:22:26.299Z,8.88
2023-03-04T14:25:05.410Z,8.59
2023-03-04T14:27:37.152Z,8.42
2023-03-04T14:30:22.101Z,8.60
2023-03-04T14:32:58.937Z,8.61
2023-03-04T14:35:29.834Z,8.66
2023-03-04T14:38:07.121Z,8.64
2023-03-04T14:40:40.879Z,8.62
2023-03-04T14:43:16.039Z,8.38
2023-03-04T14:45:45.197Z,8.52
2023-03-04T14:48:32.938Z,8.47
2023-03-04T14:51:02.375Z,8.47
2023-03-04T14:53:33.688Z,8.56
2023-03-04T14:56:05.761Z,8.54
2023-03-04T14:58:53.164Z,8.49
2023-03-04T15:01:23.271Z,8.37
2023-03-04T15:04:11.917Z,8.25
2023-03-04T15:06:49.468Z,8.21
2023-03-04T15:09:24.189Z,8.11
2023-03-04T15:11:57.044Z,8.20
2023-03-04T15:14:42.371Z,8.20
2023-03-04T15:17:28.340Z,8.15
2023-03-04T15:20:06.524Z,7.94
2023-03-04T15:22:49.873Z,7.93
2023-03-04T15:25:20.345Z,7.96
2023-03-04T15:27:49.753Z,7.78
2023-03-04T15:30:27.602Z,7.51
2023-03-04T15:32:57.049Z,7.67
2023-03-04T15:35:27.886Z,7.76
2023-03-04T15:37:56.357Z,7.68
2023-03-04T15:40:28.959Z,7.64
2023-03-04T15:42:58.522Z,7.68
2023-03-04T15:45:37.017Z,7.71
2023-03-04T15:48:08.081Z,7.65
2023-03-04T15:50:38.281Z,7.71
2023-03-04T15:53:14.545Z,7.50
2023-03-04T15:55:45.372Z,7.60
2023-03-04T15:58:13.811Z,7.70
2023-03-04T16:00:41.328Z,7.72
2023-03-04T16:03:15.139Z,7.63
2023-03-04T16:05:44.297Z,7.71
2023-03-04T16:08:18.692Z,7.66
2023-03-04T16:10:47.487Z,7.62
2023-03-04T16:13:18.219Z,7.59
2023-03-04T16:15:46.666Z,7.51
2023-03-04T16:18:15.271Z,7.60
2023-03-04T16:20:46.495Z,7.72
2023-03-04T16:23:17.616Z,7.68
2023-03-04T16:25:47.582Z,7.73
2023-03-04T16:28:15.491Z,7.64
2023-03-04T16:30:42.976Z,7.71
2023-03-04T16:33:11.542Z,7.71
2023-03-04T16:35:39.697Z,7.72
2023-03-04T16:38:28.334Z,7.62
2023-03-04T16:40:58.008Z,7.63
2023-03-04T16:43:26.046Z,7.66
2023-03-04T16:45:53.852Z,7.59
2023-03-04T16:48:21.322Z,7.71
2023-03-04T16:50:48.925Z,7.69
2023-03-04T16:53:25.138Z,7.71
2023-03-04T16:55:52.821Z,7.67
2023-03-04T16:58:20.336Z,7.90
2023-03-04T17:00:47.837Z,7.89
2023-03-04T17:03:15.164Z,7.73
2023-03-04T17:05:44.388Z,7.67
2023-03-04T17:08:11.847Z,7.72
2023-03-04T17:10:39.436Z,7.65
2023-03-04T17:13:06.874Z,7.58
2023-03-04T17:15:34.339Z,7.54
2023-03-04T17:18:01.788Z,7.49
2023-03-04T17:20:29.251Z,7.42
2023-03-04T17:22:56.471Z,7.45
2023-03-04T17:25:23.720Z,7.37
2023-03-04T17:27:50.966Z,7.37
2023-03-04T17:30:18.344Z,7.28
2023-03-04T17:32:45.686Z,7.16
2023-03-04T17:35:13.101Z,7.21
2023-03-04T17:37:40.924Z,7.11
2023-03-04T17:40:14.155Z,7.28
2023-03-04T17:42:43.031Z,7.31
2023-03-04T17:45:11.706Z,7.27
2023-03-04T17:47:39.502Z,7.38
2023-03-04T17:50:07.998Z,7.23
2023-03-04T17:52:35.749Z,7.31
2023-03-04T17:55:03.786Z,7.27
2023-03-04T17:57:31.358Z,7.24
2023-03-04T17:59:58.749Z,7.19
2023-03-04T18:02:26.291Z,7.21
2023-03-04T18:04:53.803Z,7.30
2023-03-04T18:07:21.315Z,7.13
2023-03-04T18:09:48.615Z,7.19
2023-03-04T18:12:15.921Z,7.39
2023-03-04T18:14:43.377Z,7.30
2023-03-04T18:17:10.773Z,7.30
2023-03-04T18:19:38.374Z,7.25
2023-03-04T18:22:05.825Z,7.22
2023-03-04T18:24:33.224Z,7.25
2023-03-04T18:27:01.526Z,7.21
2023-03-04T18:29:29.700Z,7.16
2023-03-04T18:31:57.293Z,7.06
2023-03-04T18:34:24.731Z,7.06
2023-03-04T18:36:52.182Z,7.07
2023-03-04T18:39:20.567Z,7.16
2023-03-04T18:41:48.161Z,7.12
2023-03-04T18:44:15.672Z,7.06
2023-03-04T18:46:47.331Z,7.03
2023-03-04T18:49:15.632Z,7.06
2023-03-04T18:51:43.111Z,7.07
2023-03-04T18:54:11.296Z,7.22
2023-03-04T18:56:43.467Z,7.44
2023-03-04T18:59:22.038Z,7.37
2023-03-04T19:01:52.660Z,7.25
2023-03-04T19:04:23.396Z,7.23
2023-03-04T19:06:50.934Z,7.28
2023-03-04T19:09:18.430Z,7.30
2023-03-04T19:11:46.030Z,7.29
2023-03-04T19:14:13.621Z,7.30
2023-03-04T19:16:41.263Z,7.19
2023-03-04T19:19:08.845Z,7.20
2023-03-04T19:21:38.398Z,7.11
2023-03-04T19:24:06.442Z,7.00
2023-03-04T19:26:34.343Z,7.00
2023-03-04T19:29:01.736Z,7.06
2023-03-04T19:31:29.297Z,7.06
2023-03-04T19:33:56.744Z,7.04
2023-03-04T19:36:46.178Z,7.13
2023-03-04T19:39:15.664Z,7.34
2023-03-04T19:41:43.297Z,7.29
2023-03-04T19:44:10.874Z,7.25
2023-03-04T19:46:38.537Z,7.31
2023-03-04T19:49:06.114Z,7.26
2023-03-04T19:51:33.668Z,7.30
2023-03-04T19:54:01.999Z,7.56
2023-03-04T19:56:29.476Z,7.53
2023-03-04T19:58:57.576Z,7.44
2023-03-04T20:01:28.464Z,7.14
2023-03-04T20:04:02.081Z,7.37
2023-03-04T20:06:30.564Z,7.23
2023-03-04T20:09:00.429Z,7.07
2023-03-04T20:11:29.852Z,7.16
2023-03-04T20:14:01.168Z,7.11
2023-03-04T20:16:29.009Z,7.22
2023-03-04T20:18:59.672Z,7.04
2023-03-04T20:21:29.691Z,7.02
2023-03-04T20:24:01.315Z,6.94
2023-03-04T20:26:31.238Z,6.95
2023-03-04T20:28:59.410Z,7.11
2023-03-04T20:31:31.877Z,7.21
2023-03-04T20:34:00.204Z,7.15
2023-03-04T20:36:29.337Z,7.26
2023-03-04T20:39:02.545Z,7.19
2023-03-04T20:41:32.862Z,7.17
2023-03-04T20:44:00.909Z,7.15
2023-03-04T20:46:28.707Z,7.09
2023-03-04T20:49:06.084Z,6.95
2023-03-04T20:51:34.709Z,6.85
2023-03-04T20:54:02.610Z,6.95
2023-03-04T20:56:30.356Z,6.87
2023-03-04T20:59:00.229Z,7.06
2023-03-04T21:01:28.030Z,7.23
2023-03-04T21:03:55.541Z,7.20
2023-03-04T21:06:25.238Z,7.16
2023-03-04T21:08:52.684Z,7.07
2023-03-04T21:11:20.540Z,7.00
2023-03-04T21:13:53.958Z,6.97
2023-03-04T21:16:21.771Z,6.90
2023-03-04T21:18:49.538Z,6.88
2023-03-04T21:21:22.284Z,6.92
2023-03-04T21:23:51.827Z,6.95
2023-03-04T21:26:20.246Z,6.96
2023-03-04T21:28:48.415Z,6.93
2023-03-04T21:31:19.234Z,6.90
2023-03-04T21:33:47.576Z,6.99
2023-03-04T21:36:15.387Z,7.00
2023-03-04T21:38:44.229Z,7.06
2023-03-04T21:41:21.848Z,6.95
2023-03-04T21:43:49.970Z,6.90
2023-03-04T21:46:18.287Z,6.73
2023-03-04T21:48:47.705Z,6.76
2023-03-04T21:51:16.351Z,6.95
2023-03-04T21:53:44.176Z,6.85
2023-03-04T21:56:12.824Z,6.85
2023-03-04T21:58:42.425Z,6.95
2023-03-04T22:01:18.847Z,7.00
2023-03-04T22:03:49.823Z,7.14
2023-03-04T22:06:22.196Z,6.97
2023-03-04T22:08:50.563Z,7.00
2023-03-04T22:11:18.917Z,6.81
2023-03-04T22:13:46.437Z,6.80
2023-03-04T22:16:13.718Z,6.90
2023-03-04T22:18:42.382Z,6.82
2023-03-04T22:21:14.911Z,6.81
2023-03-04T22:23:43.212Z,6.79
2023-03-04T22:26:16.516Z,6.69
2023-03-04T22:28:44.518Z,6.67
2023-03-04T22:31:26.438Z,6.71
2023-03-04T22:33:53.948Z,6.74
2023-03-04T22:36:21.463Z,6.70
2023-03-04T22:38:48.839Z,6.64
2023-03-04T22:41:17.651Z,6.63
2023-03-04T22:43:45.534Z,6.54
2023-03-04T22:46:28.274Z,6.59
2023-03-04T22:48:58.403Z,6.64
2023-03-04T22:51:27.127Z,6.72
2023-03-04T22:53:56.380Z,6.73
2023-03-04T22:56:24.710Z,6.65
2023-03-04T22:58:52.229Z,6.63
2023-03-04T23:01:20.547Z,6.70
2023-03-04T23:03:49.396Z,6.76
2023-03-04T23:06:20.092Z,6.64
2023-03-04T23:08:49.416Z,6.68
2023-03-04T23:11:23.868Z,6.65
2023-03-04T23:13:51.485Z,6.60
2023-03-04T23:16:20.372Z,6.58
2023-03-04T23:18:49.413Z,6.49
2023-03-04T23:21:22.852Z,6.56
2023-03-04T23:23:52.054Z,6.63
2023-03-04T23:26:23.295Z,6.76
2023-03-04T23:28:51.088Z,6.82
2023-03-04T23:31:19.086Z,6.65
2023-03-04T23:33:47.809Z,6.73
2023-03-04T23:36:18.256Z,6.67
2023-03-04T23:38:48.541Z,6.70
2023-03-04T23:41:35.290Z,6.76
2023-03-04T23:44:03.826Z,6.68
2023-03-04T23:46:31.558Z,6.60
2023-03-04T23:48:59.369Z,6.63
2023-03-04T23:51:28.883Z,6.68
2023-03-04T23:53:56.654Z,6.65
2023-03-04T23:56:26.664Z,6.91
2023-03-04T23:58:55.751Z,7.10
